Time;durP1;ratioP1;P1;durP2;ratioP2;P2;SDS_P1;SDS_P2;PMS_P1;PMS_P2;Temp;Humidity;BMP_temperature;BMP_pressure;BME280_temperature;BME280_humidity;BME280_pressure;Samples;Min_cycle;Max_cycle;Signal;HPM_P1;HPM_P2
2021/10/16 06:00:11;;;;;;;78.82;33.00;;;9.80;99.90;;;;;;6148015;22;20842;-79
2021/10/16 06:02:38;;;;;;;83.38;33.20;;;9.80;99.90;;;;;;6269052;22;20019;-83
2021/10/16 06:05:06;;;;;;;81.35;33.80;;;9.80;99.90;;;;;;6245917;22;20016;-83
2021/10/16 06:07:33;;;;;;;52.92;28.27;;;9.80;99.90;;;;;;6273572;22;20016;-82
2021/10/16 06:09:59;;;;;;;94.70;35.22;;;9.80;99.90;;;;;;6274431;22;20404;-82
2021/10/16 06:12:26;;;;;;;89.03;35.08;;;9.80;99.90;;;;;;6273337;22;20024;-82
2021/10/16 06:14:53;;;;;;;91.05;33.30;;;9.80;99.90;;;;;;6274196;22;20073;-82
2021/10/16 06:17:20;;;;;;;92.55;35.08;;;9.80;99.90;;;;;;6246300;22;20050;-82
2021/10/16 06:19:47;;;;;;;53.80;25.95;;;9.80;99.90;;;;;;6272861;22;20096;-82
2021/10/16 06:22:14;;;;;;;89.70;33.63;;;9.80;99.90;;;;;;6273510;22;20485;-81
2021/10/16 06:24:41;;;;;;;100.68;34.60;;;9.80;99.90;;;;;;6274254;22;20019;-82
2021/10/16 06:27:07;;;;;;;79.85;33.25;;;9.70;99.90;;;;;;6273967;22;20020;-81
2021/10/16 06:29:34;;;;;;;98.63;34.25;;;9.70;99.90;;;;;;6274126;22;20028;-81
2021/10/16 06:32:01;;;;;;;97.82;35.53;;;9.70;99.90;;;;;;6273780;22;20023;-81
2021/10/16 06:34:28;;;;;;;89.93;34.78;;;9.70;99.90;;;;;;6273105;22;20404;-82
2021/10/16 06:36:55;;;;;;;102.95;34.97;;;9.70;99.90;;;;;;6274057;22;20020;-82
2021/10/16 06:39:22;;;;;;;89.82;34.13;;;9.70;99.90;;;;;;6273441;22;20073;-82
2021/10/16 06:41:49;;;;;;;87.70;34.50;;;9.70;99.90;;;;;;6274046;22;20016;-82
2021/10/16 06:44:16;;;;;;;89.63;33.22;;;9.70;99.90;;;;;;6273286;22;20077;-81
2021/10/16 06:46:43;;;;;;;83.05;32.70;;;9.70;99.90;;;;;;6273705;22;20530;-82
2021/10/16 06:49:10;;;;;;;96.20;35.92;;;9.70;99.90;;;;;;6273122;22;20020;-82
2021/10/16 06:51:37;;;;;;;88.85;35.13;;;9.70;99.90;;;;;;6273867;22;20020;-82
2021/10/16 06:54:04;;;;;;;52.05;27.23;;;9.70;99.90;;;;;;6274017;22;20016;-81
2021/10/16 06:56:31;;;;;;;87.57;34.58;;;9.70;99.90;;;;;;6272705;22;20474;-82
2021/10/16 06:58:58;;;;;;;98.78;34.67;;;9.80;99.90;;;;;;6269933;22;20081;-82
2021/10/16 07:01:25;;;;;;;79.97;31.60;;;9.80;99.90;;;;;;6266745;22;20019;-83
2021/10/16 07:03:57;;;;;;;63.33;28.88;;;9.80;99.90;;;;;;6268140;22;20031;-82
2021/10/16 07:06:24;;;;;;;91.72;34.40;;;9.80;99.90;;;;;;6266088;22;20028;-81
2021/10/16 07:08:51;;;;;;;61.30;29.45;;;9.80;99.90;;;;;;6269325;22;20012;-83
2021/10/16 07:11:18;;;;;;;88.88;35.17;;;9.90;99.90;;;;;;6240743;22;20481;-82
2021/10/16 07:13:45;;;;;;;97.28;35.63;;;9.90;99.90;;;;;;6268932;22;20023;-81
2021/10/16 07:16:12;;;;;;;58.38;28.85;;;10.00;99.90;;;;;;6268366;22;20358;-81
2021/10/16 07:18:39;;;;;;;87.45;34.28;;;10.00;99.90;;;;;;6268876;22;20359;-82
2021/10/16 07:21:06;;;;;;;54.05;28.60;;;10.00;99.90;;;;;;6268097;22;20349;-82
2021/10/16 07:23:53;;;;;;;84.95;34.50;;;10.10;99.90;;;;;;6269593;22;20023;-81
2021/10/16 07:26:20;;;;;;;63.53;30.45;;;10.10;99.90;;;;;;6268313;22;20547;-82
2021/10/16 07:28:47;;;;;;;97.03;36.28;;;10.20;99.90;;;;;;6269037;22;20081;-82
2021/10/16 07:31:13;;;;;;;85.93;35.08;;;10.20;99.90;;;;;;6267731;22;20060;-83
2021/10/16 07:33:41;;;;;;;60.90;30.23;;;10.20;99.90;;;;;;6240950;22;20004;-82
2021/10/16 07:36:08;;;;;;;83.47;36.08;;;10.30;99.90;;;;;;6267285;22;20073;-83
2021/10/16 07:38:35;;;;;;;86.57;35.50;;;10.30;99.90;;;;;;6268237;22;20019;-82
2021/10/16 07:41:02;;;;;;;66.40;31.23;;;10.40;99.90;;;;;;6241236;22;20023;-81
2021/10/16 07:43:29;;;;;;;65.05;30.60;;;10.40;99.90;;;;;;6267699;22;20089;-81
2021/10/16 07:45:56;;;;;;;80.65;35.08;;;10.50;99.90;;;;;;6268066;22;20513;-81
2021/10/16 07:48:23;;;;;;;59.88;30.88;;;10.50;99.90;;;;;;6266965;22;20066;-81
2021/10/16 07:50:52;;;;;;;85.50;35.95;;;10.60;99.90;;;;;;6267834;22;20012;-81
2021/10/16 07:53:19;;;;;;;57.97;31.30;;;10.60;99.90;;;;;;6267381;22;20086;-81
2021/10/16 07:55:46;;;;;;;77.57;35.88;;;10.70;99.90;;;;;;6267537;22;20019;-82
2021/10/16 07:58:13;;;;;;;50.28;30.08;;;10.80;99.90;;;;;;6267311;22;20035;-81
2021/10/16 08:00:40;;;;;;;51.58;31.25;;;10.80;99.90;;;;;;6238387;22;20093;-80
2021/10/16 08:03:07;;;;;;;81.05;37.40;;;10.90;99.90;;;;;;6267166;22;20020;-82
2021/10/16 08:05:34;;;;;;;54.63;30.90;;;11.00;99.90;;;;;;6268736;22;20070;-82
2021/10/16 08:08:01;;;;;;;48.58;29.63;;;11.00;99.90;;;;;;6267587;22;20477;-83
2021/10/16 08:10:28;;;;;;;50.30;29.70;;;11.10;99.90;;;;;;6267968;22;20110;-82
2021/10/16 08:12:55;;;;;;;44.10;29.15;;;11.20;99.90;;;;;;6267650;22;20024;-83
2021/10/16 08:15:22;;;;;;;43.08;28.67;;;11.30;99.90;;;;;;6267955;22;20554;-83
2021/10/16 08:17:49;;;;;;;45.67;28.10;;;11.30;99.90;;;;;;6268244;22;20334;-82
2021/10/16 08:20:15;;;;;;;41.03;28.05;;;11.40;99.90;;;;;;6267268;22;20069;-82
2021/10/16 08:22:43;;;;;;;35.83;26.23;;;11.50;99.90;;;;;;6267165;22;20020;-82
2021/10/16 08:25:11;;;;;;;33.05;25.55;;;11.50;99.90;;;;;;6267290;22;20024;-82
2021/10/16 08:27:39;;;;;;;36.97;25.92;;;11.60;99.90;;;;;;6266941;22;20051;-81
2021/10/16 08:30:09;;;;;;;35.15;24.33;;;11.70;99.90;;;;;;6260777;22;20857;-82
2021/10/16 08:32:38;;;;;;;29.02;23.65;;;11.70;99.90;;;;;;6259854;22;20021;-80
2021/10/16 08:35:06;;;;;;;30.55;23.92;;;11.80;99.90;;;;;;6265516;22;20024;-81
2021/10/16 08:37:33;;;;;;;29.63;23.05;;;11.90;99.90;;;;;;6266201;22;20015;-80
2021/10/16 08:40:00;;;;;;;26.80;22.30;;;12.00;99.90;;;;;;6265596;22;20587;-82
2021/10/16 08:42:27;;;;;;;26.20;21.05;;;12.10;99.90;;;;;;6236987;22;20565;-81
2021/10/16 08:44:59;;;;;;;23.25;20.73;;;12.10;99.90;;;;;;6264774;22;20031;-82
2021/10/16 08:47:38;;;;;;;23.58;20.92;;;12.20;99.90;;;;;;6265952;22;20294;-81
2021/10/16 08:50:08;;;;;;;22.80;20.38;;;12.30;99.90;;;;;;6265634;22;20069;-81
2021/10/16 08:52:37;;;;;;;22.52;20.17;;;12.30;99.90;;;;;;6266635;22;20069;-82
2021/10/16 08:55:06;;;;;;;23.02;19.27;;;12.40;99.90;;;;;;6263996;22;20039;-82
2021/10/16 08:57:35;;;;;;;20.70;18.23;;;12.40;99.90;;;;;;6264679;22;20016;-82
2021/10/16 09:00:42;;;;;;;21.55;19.27;;;12.50;99.90;;;;;;6266875;22;20074;-82
2021/10/16 09:03:41;;;;;;;21.10;18.77;;;12.60;99.90;;;;;;6264698;22;20046;-81
2021/10/16 09:06:25;;;;;;;20.10;18.10;;;12.70;99.90;;;;;;6264633;22;20030;-80
2021/10/16 09:09:05;;;;;;;19.17;17.15;;;12.70;99.90;;;;;;6266415;22;20485;-81
2021/10/16 09:11:37;;;;;;;18.60;16.83;;;12.90;99.90;;;;;;6266171;22;20016;-81
2021/10/16 09:14:04;;;;;;;18.02;16.33;;;13.00;99.90;;;;;;6265997;22;20050;-80
2021/10/16 09:16:44;;;;;;;18.80;14.95;;;13.10;99.90;;;;;;6266647;22;20406;-81
2021/10/16 09:19:29;;;;;;;19.42;16.08;;;13.20;99.90;;;;;;6265749;22;20020;-82
2021/10/16 09:22:02;;;;;;;15.38;13.88;;;13.30;99.90;;;;;;6266380;22;20028;-82
2021/10/16 09:24:38;;;;;;;15.48;13.88;;;13.40;99.90;;;;;;6265736;22;20568;-81
2021/10/16 09:27:10;;;;;;;15.10;13.50;;;13.50;99.90;;;;;;6265527;22;20077;-80
2021/10/16 09:29:40;;;;;;;14.43;13.05;;;13.60;99.90;;;;;;6239204;22;20016;-81
2021/10/16 09:32:11;;;;;;;15.02;13.50;;;13.60;99.90;;;;;;6265340;22;20440;-80
2021/10/16 09:34:40;;;;;;;13.95;12.55;;;13.70;99.90;;;;;;6266507;22;20030;-80
2021/10/16 09:37:20;;;;;;;;;;;13.80;99.90;;;;;;6266484;22;20028;-81
2021/10/16 09:39:50;;;;;;;13.55;12.25;;;13.90;99.90;;;;;;6266347;22;19923;-81
2021/10/16 09:42:36;;;;;;;14.25;12.73;;;14.00;99.90;;;;;;6267473;22;20085;-82
2021/10/16 09:45:07;;;;;;;12.95;11.65;;;14.10;99.90;;;;;;6268508;22;20020;-82
2021/10/16 09:47:35;;;;;;;12.05;10.88;;;14.20;99.90;;;;;;6267989;22;20042;-82
2021/10/16 09:50:07;;;;;;;12.30;11.02;;;14.30;99.90;;;;;;6267303;22;20089;-82
2021/10/16 09:52:36;;;;;;;11.27;10.18;;;14.40;99.90;;;;;;6267270;22;20016;-80
2021/10/16 09:55:04;;;;;;;;;;;14.50;99.90;;;;;;6263251;22;20027;-81
2021/10/16 09:57:32;;;;;;;10.95;9.10;;;14.60;99.90;;;;;;6265621;22;19919;-81
2021/10/16 10:00:00;;;;;;;10.82;8.70;;;14.70;99.90;;;;;;6268718;22;20065;-81
2021/10/16 10:02:31;;;;;;;9.52;8.38;;;14.80;99.90;;;;;;6267450;22;20028;-81
2021/10/16 10:05:01;;;;;;;10.73;8.15;;;14.90;99.90;;;;;;6268036;22;20054;-80
2021/10/16 10:07:31;;;;;;;10.90;7.70;;;14.90;99.90;;;;;;6267581;22;20339;-82
2021/10/16 10:09:58;;;;;;;9.05;7.28;;;15.00;99.90;;;;;;6241813;22;20481;-82
2021/10/16 10:12:26;;;;;;;7.50;6.47;;;15.20;99.90;;;;;;6267558;22;20020;-79
2021/10/16 10:14:54;;;;;;;7.78;7.05;;;15.20;99.90;;;;;;6268634;22;20024;-80
2021/10/16 10:17:25;;;;;;;7.22;6.30;;;15.30;99.90;;;;;;6267159;22;20026;-80
2021/10/16 10:19:56;;;;;;;8.63;7.03;;;15.30;99.90;;;;;;6268601;22;20015;-82
2021/10/16 10:22:23;;;;;;;7.78;6.68;;;15.40;99.90;;;;;;6266469;22;20027;-82
2021/10/16 10:24:53;;;;;;;7.32;6.63;;;15.50;99.90;;;;;;6268504;22;20020;-81
2021/10/16 10:27:23;;;;;;;7.28;6.35;;;15.60;99.90;;;;;;6266061;22;20065;-81
2021/10/16 10:29:52;;;;;;;7.50;6.75;;;15.60;99.90;;;;;;6241285;22;20481;-81
2021/10/16 10:32:27;;;;;;;7.78;6.10;;;15.70;99.90;;;;;;6267094;22;20086;-80
2021/10/16 10:35:03;;;;;;;7.72;5.28;;;15.80;99.90;;;;;;6268272;22;20020;-79
2021/10/16 10:37:41;;;;;;;7.78;5.75;;;15.80;99.90;;;;;;6267456;22;20019;-80
2021/10/16 10:40:14;;;;;;;;;;;15.90;99.90;;;;;;6267739;22;20016;-80
2021/10/16 10:42:42;;;;;;;7.10;5.53;;;16.00;99.90;;;;;;6269046;22;19915;-81
2021/10/16 10:45:34;;;;;;;7.30;5.00;;;16.00;99.90;;;;;;6265989;22;20022;-80
2021/10/16 10:48:06;;;;;;;6.80;4.57;;;16.00;99.90;;;;;;6267859;22;20397;-81
2021/10/16 10:50:54;;;;;;;6.45;4.90;;;16.10;99.90;;;;;;6266479;22;20401;-81
2021/10/16 10:53:27;;;;;;;7.03;5.00;;;16.10;99.90;;;;;;6239725;22;20099;-81
2021/10/16 10:55:58;;;;;;;6.97;4.32;;;16.20;99.90;;;;;;6266919;22;20374;-80
2021/10/16 10:58:56;;;;;;;6.80;4.03;;;16.30;99.90;;;;;;6267265;22;20347;-81
2021/10/16 11:01:43;;;;;;;;;;;16.30;99.90;;;;;;6266254;22;20037;-82
2021/10/16 11:04:30;;;;;;;8.60;4.20;;;16.30;99.90;;;;;;6239440;22;19915;-81
2021/10/16 11:07:01;;;;;;;6.07;4.57;;;16.30;99.90;;;;;;6265344;22;20374;-82
2021/10/16 11:09:28;;;;;;;5.07;4.32;;;16.30;99.90;;;;;;6264674;22;20024;-80
2021/10/16 11:11:54;;;;;;;5.38;4.20;;;16.30;99.90;;;;;;6266017;22;20027;-80
2021/10/16 11:14:32;;;;;;;7.63;4.10;;;16.40;99.90;;;;;;6265280;22;20347;-79
2021/10/16 11:17:05;;;;;;;4.75;3.75;;;16.40;99.90;;;;;;6266378;22;20088;-80
2021/10/16 11:19:46;;;;;;;6.93;5.03;;;16.40;99.90;;;;;;6266517;22;20015;-78
2021/10/16 11:22:13;;;;;;;8.80;5.68;;;16.50;99.90;;;;;;6266723;22;20065;-81
2021/10/16 11:24:40;;;;;;;13.50;8.63;;;16.50;99.90;;;;;;6264662;22;20016;-79
2021/10/16 11:27:07;;;;;;;10.90;5.10;;;16.50;99.90;;;;;;6266664;22;20023;-78
2021/10/16 11:29:38;;;;;;;7.53;4.28;;;16.50;99.90;;;;;;6265825;22;20085;-79
2021/10/16 11:32:23;;;;;;;14.13;9.02;;;16.50;99.90;;;;;;6266612;22;20560;-80
2021/10/16 11:35:00;;;;;;;4.00;3.33;;;16.60;99.90;;;;;;6267925;22;20078;-81
2021/10/16 11:37:48;;;;;;;3.42;2.35;;;16.60;99.90;;;;;;6266436;22;20027;-80
2021/10/16 11:40:20;;;;;;;5.53;2.40;;;16.70;99.90;;;;;;6266406;22;21030;-78
2021/10/16 11:42:53;;;;;;;4.22;2.70;;;16.80;99.90;;;;;;6266476;22;20473;-80
2021/10/16 11:45:23;;;;;;;5.75;3.30;;;16.80;99.90;;;;;;6240014;22;20497;-80
2021/10/16 11:47:53;;;;;;;3.95;2.70;;;16.90;99.90;;;;;;6267152;22;20023;-80
2021/10/16 11:50:28;;;;;;;3.55;2.58;;;17.00;99.90;;;;;;6266939;22;20073;-81
2021/10/16 11:53:26;;;;;;;4.40;2.67;;;17.00;99.90;;;;;;6240563;22;20038;-81
2021/10/16 11:56:08;;;;;;;3.08;2.10;;;17.00;99.90;;;;;;6143216;23;20017;-81
2021/10/16 11:58:36;;;;;;;4.43;2.58;;;17.10;99.90;;;;;;6135204;23;20515;-81
2021/10/16 12:01:05;;;;;;;3.33;2.78;;;17.20;99.90;;;;;;6139960;23;20062;-82
2021/10/16 12:03:39;;;;;;;4.70;3.45;;;17.20;99.90;;;;;;6143444;23;20021;-82
2021/10/16 12:06:09;;;;;;;7.75;3.22;;;17.20;99.90;;;;;;6143102;23;20029;-81
2021/10/16 12:08:41;;;;;;;5.90;3.10;;;17.20;99.90;;;;;;6143611;23;20029;-81
2021/10/16 12:11:18;;;;;;;4.55;3.05;;;17.30;99.90;;;;;;6144932;23;20025;-81
2021/10/16 12:13:56;;;;;;;5.10;3.00;;;17.30;99.90;;;;;;6148569;23;20021;-82
2021/10/16 12:16:46;;;;;;;4.22;3.03;;;17.30;99.90;;;;;;6147522;23;20492;-82
2021/10/16 12:19:16;;;;;;;4.68;2.85;;;17.30;99.90;;;;;;6148068;23;20088;-82
2021/10/16 12:21:46;;;;;;;6.97;3.67;;;17.30;99.90;;;;;;6147696;23;20017;-83
2021/10/16 12:24:25;;;;;;;6.40;3.83;;;17.30;99.90;;;;;;6147544;23;20033;-83
2021/10/16 12:27:16;;;;;;;6.47;3.60;;;17.20;99.90;;;;;;6148101;23;20018;-82
2021/10/16 12:29:46;;;;;;;5.90;4.22;;;17.20;99.90;;;;;;6148197;23;20079;-82
2021/10/16 12:32:15;;;;;;;5.53;4.15;;;17.10;99.90;;;;;;6202403;22;20085;-82
2021/10/16 12:34:52;;;;;;;6.05;4.00;;;17.10;99.90;;;;;;6272562;22;20085;-82
2021/10/16 12:37:20;;;;;;;4.47;3.72;;;17.10;99.90;;;;;;6269464;22;20027;-82
2021/10/16 12:39:48;;;;;;;7.05;4.88;;;17.10;99.90;;;;;;6244317;22;20485;-82
2021/10/16 12:42:22;;;;;;;4.82;3.75;;;17.10;99.90;;;;;;6270695;22;20020;-82
2021/10/16 12:44:51;;;;;;;4.93;3.83;;;17.10;99.90;;;;;;6271410;22;20539;-82
2021/10/16 12:47:23;;;;;;;6.30;4.50;;;17.10;99.90;;;;;;6270780;22;20254;-81
2021/10/16 12:49:57;;;;;;;7.22;4.28;;;17.10;99.90;;;;;;6271935;22;20023;-81
2021/10/16 12:52:47;;;;;;;6.80;4.40;;;17.10;99.90;;;;;;6269681;22;20020;-82
2021/10/16 12:55:19;;;;;;;6.10;3.80;;;17.10;99.90;;;;;;6271352;22;20073;-82
2021/10/16 12:57:56;;;;;;;12.93;4.28;;;17.10;99.90;;;;;;6272371;22;20020;-84
2021/10/16 13:00:25;;;;;;;6.45;3.92;;;17.00;99.90;;;;;;6269943;22;20027;-83
2021/10/16 13:02:53;;;;;;;6.57;3.15;;;17.00;99.90;;;;;;6267573;22;20019;-82
2021/10/16 13:05:21;;;;;;;4.90;2.97;;;17.00;99.90;;;;;;6270896;22;20413;-84
2021/10/16 13:07:48;;;;;;;6.32;3.80;;;17.00;99.90;;;;;;6271619;22;20030;-83
2021/10/16 13:10:15;;;;;;;5.78;3.10;;;17.00;99.90;;;;;;6271480;22;20046;-83
2021/10/16 13:12:44;;;;;;;4.18;3.50;;;17.00;99.90;;;;;;6242900;22;20016;-84
2021/10/16 13:15:15;;;;;;;7.82;3.30;;;16.90;99.90;;;;;;6269440;22;20018;-83
2021/10/16 13:17:42;;;;;;;3.88;3.25;;;17.00;99.90;;;;;;6273037;22;20019;-83
2021/10/16 13:20:12;;;;;;;6.15;3.40;;;17.00;99.90;;;;;;6270991;22;20023;-84
2021/10/16 13:22:40;;;;;;;5.88;3.60;;;17.00;99.90;;;;;;6272617;22;20016;-85
2021/10/16 13:25:08;;;;;;;4.65;3.10;;;17.00;99.90;;;;;;6272370;22;20109;-83
2021/10/16 13:27:36;;;;;;;7.13;3.40;;;17.00;99.90;;;;;;6273091;22;20023;-82
2021/10/16 13:30:05;;;;;;;6.47;4.40;;;17.00;99.90;;;;;;6272841;22;20440;-84
2021/10/16 13:32:32;;;;;;;5.38;4.50;;;17.00;99.90;;;;;;6246038;22;20024;-83
2021/10/16 13:35:00;;;;;;;7.35;5.05;;;17.00;99.90;;;;;;6273142;22;20024;-83
2021/10/16 13:37:28;;;;;;;4.78;3.92;;;17.00;99.90;;;;;;6272564;22;20028;-83
2021/10/16 13:39:55;;;;;;;6.38;4.18;;;17.00;99.90;;;;;;6272840;22;20012;-83
2021/10/16 13:42:23;;;;;;;4.65;3.70;;;17.00;99.90;;;;;;6272203;22;20023;-83
2021/10/16 13:44:50;;;;;;;8.88;6.15;;;17.00;99.90;;;;;;6273279;22;20020;-83
2021/10/16 13:47:17;;;;;;;6.45;4.93;;;17.00;99.90;;;;;;6271313;22;20078;-82
2021/10/16 13:49:44;;;;;;;6.88;4.25;;;17.00;99.90;;;;;;6273109;22;20073;-83
2021/10/16 13:52:11;;;;;;;12.68;6.28;;;17.00;99.90;;;;;;6271032;22;20086;-82
2021/10/16 13:54:38;;;;;;;5.82;3.20;;;17.00;99.90;;;;;;6245431;22;20106;-83
2021/10/16 13:57:05;;;;;;;5.32;2.50;;;17.00;99.90;;;;;;6269744;22;20474;-84
2021/10/16 13:59:32;;;;;;;3.88;2.22;;;16.90;99.90;;;;;;6271261;22;20024;-83
2021/10/16 14:01:59;;;;;;;3.40;2.65;;;16.90;99.90;;;;;;6271702;22;20020;-82
2021/10/16 14:04:28;;;;;;;5.40;2.67;;;16.90;99.90;;;;;;6270156;22;20422;-82
2021/10/16 14:06:55;;;;;;;4.90;2.75;;;16.90;99.90;;;;;;6256941;22;20027;-84
2021/10/16 14:09:22;;;;;;;3.13;2.05;;;16.90;99.90;;;;;;6272155;22;20019;-85
2021/10/16 14:11:49;;;;;;;3.40;1.90;;;16.90;99.90;;;;;;6273498;22;20481;-83
2021/10/16 14:14:15;;;;;;;4.75;2.08;;;16.90;99.90;;;;;;6272471;22;20077;-83
2021/10/16 14:16:42;;;;;;;2.90;1.83;;;16.90;99.90;;;;;;6272624;22;20026;-82
2021/10/16 14:19:09;;;;;;;4.72;2.40;;;16.90;99.90;;;;;;6271715;22;20026;-81
2021/10/16 14:21:36;;;;;;;4.55;2.10;;;16.90;99.90;;;;;;6272923;22;20069;-81
2021/10/16 14:24:03;;;;;;;3.63;1.90;;;16.90;99.90;;;;;;6273316;22;20077;-83
2021/10/16 14:26:30;;;;;;;3.15;1.90;;;16.90;99.90;;;;;;6272454;22;20020;-82
2021/10/16 14:28:57;;;;;;;4.55;2.00;;;16.90;99.90;;;;;;6273057;22;20019;-82
2021/10/16 14:31:24;;;;;;;5.03;1.98;;;17.00;99.90;;;;;;6272150;22;20016;-85
2021/10/16 14:33:52;;;;;;;3.72;1.92;;;17.00;99.90;;;;;;6272640;22;20403;-84
2021/10/16 14:36:19;;;;;;;4.53;2.42;;;17.00;99.90;;;;;;6272373;22;20073;-84
2021/10/16 14:38:46;;;;;;;4.32;1.95;;;17.00;99.90;;;;;;6273604;22;20081;-82
2021/10/16 14:41:13;;;;;;;3.83;2.28;;;17.00;99.90;;;;;;6272289;22;20474;-83
2021/10/16 14:43:40;;;;;;;2.03;1.83;;;17.00;99.90;;;;;;6272619;22;20027;-82
2021/10/16 14:46:07;;;;;;;3.00;2.00;;;17.10;99.90;;;;;;6272208;22;20089;-83
2021/10/16 14:48:34;;;;;;;3.20;1.90;;;17.10;99.90;;;;;;6272984;22;20043;-83
2021/10/16 14:51:01;;;;;;;2.88;1.80;;;17.10;99.90;;;;;;6272101;22;20450;-83
2021/10/16 14:53:28;;;;;;;3.15;1.67;;;17.10;99.90;;;;;;6269910;22;20019;-83
2021/10/16 14:55:54;;;;;;;3.95;1.73;;;17.10;99.90;;;;;;6272699;22;20070;-84
2021/10/16 14:58:21;;;;;;;5.45;2.10;;;17.10;99.90;;;;;;6271957;22;20020;-83
2021/10/16 15:00:50;;;;;;;4.18;2.03;;;17.20;99.90;;;;;;6271833;22;20027;-83
2021/10/16 15:03:17;;;;;;;4.33;1.77;;;17.20;99.90;;;;;;6269882;22;20020;-86
2021/10/16 15:05:52;;;;;;;5.97;1.95;;;17.20;99.90;;;;;;6272747;22;20016;-84
2021/10/16 15:08:19;;;;;;;4.38;1.90;;;17.20;99.90;;;;;;6245833;22;20047;-87
2021/10/16 15:10:47;;;;;;;5.33;2.00;;;17.20;99.90;;;;;;6246142;22;20062;-84
2021/10/16 15:13:14;;;;;;;6.15;2.10;;;17.20;99.90;;;;;;6244789;22;20015;-84
2021/10/16 15:15:42;;;;;;;2.40;1.80;;;17.20;99.90;;;;;;6272816;22;20035;-83
2021/10/16 15:18:09;;;;;;;3.22;2.00;;;17.10;99.90;;;;;;6271105;22;20039;-84
2021/10/16 15:20:36;;;;;;;6.03;2.10;;;17.10;99.90;;;;;;6272083;22;20024;-85
2021/10/16 15:23:04;;;;;;;2.42;1.80;;;17.00;99.90;;;;;;6245825;22;20097;-84
2021/10/16 15:25:55;;;;;;;5.57;2.30;;;17.00;99.90;;;;;;6250317;22;20389;-85
2021/10/16 15:28:21;;;;;;;7.70;2.40;;;16.90;99.90;;;;;;6271067;22;20081;-84
2021/10/16 15:30:48;;;;;;;3.58;2.10;;;16.90;99.90;;;;;;6271656;22;20078;-84
2021/10/16 15:33:15;;;;;;;7.20;2.35;;;16.90;99.90;;;;;;6271796;22;20027;-86
2021/10/16 15:35:45;;;;;;;7.82;2.60;;;16.80;99.90;;;;;;6246115;22;20011;-82
2021/10/16 15:38:12;;;;;;;6.38;2.03;;;16.70;99.90;;;;;;6270966;22;20542;-82
2021/10/16 15:40:39;;;;;;;6.53;2.33;;;16.70;99.90;;;;;;6272511;22;20023;-81
2021/10/16 15:43:06;;;;;;;6.15;2.40;;;16.60;99.90;;;;;;6272460;22;20016;-85
2021/10/16 15:45:34;;;;;;;6.63;2.50;;;16.70;99.90;;;;;;6270254;22;20077;-82
2021/10/16 15:48:01;;;;;;;6.05;2.40;;;16.60;99.90;;;;;;6270617;22;20024;-83
2021/10/16 15:50:29;;;;;;;4.00;2.63;;;16.60;99.90;;;;;;6270424;22;20031;-85
2021/10/16 15:52:58;;;;;;;9.05;3.42;;;16.60;99.90;;;;;;6271047;22;20092;-84
2021/10/16 15:55:25;;;;;;;7.25;3.38;;;16.60;99.90;;;;;;6251836;22;20027;-84
2021/10/16 15:57:55;;;;;;;13.95;3.88;;;16.60;99.90;;;;;;6259776;22;20023;-83
2021/10/16 16:00:22;;;;;;;8.57;3.10;;;16.50;99.90;;;;;;6236884;22;20020;-85
2021/10/16 16:02:49;;;;;;;5.75;3.15;;;16.50;99.90;;;;;;6266052;22;20093;-85
2021/10/16 16:05:16;;;;;;;4.63;2.97;;;16.50;99.90;;;;;;6266180;22;20401;-84
2021/10/16 16:07:43;;;;;;;9.88;3.40;;;16.50;99.90;;;;;;6239343;22;20077;-85
2021/10/16 16:10:10;;;;;;;7.90;3.17;;;16.50;99.90;;;;;;6237944;22;20019;-84
2021/10/16 16:12:37;;;;;;;7.32;2.60;;;16.50;99.90;;;;;;6266065;22;20019;-84
2021/10/16 16:15:05;;;;;;;10.20;3.53;;;16.50;99.90;;;;;;6265478;22;20016;-85
2021/10/16 16:17:34;;;;;;;4.45;3.45;;;16.50;99.90;;;;;;6264527;22;20043;-85
2021/10/16 16:20:02;;;;;;;5.32;3.47;;;16.50;99.90;;;;;;6266088;22;20071;-84
2021/10/16 16:22:29;;;;;;;5.13;3.23;;;16.50;99.90;;;;;;6262161;22;20019;-83
2021/10/16 16:24:56;;;;;;;7.70;4.15;;;16.50;99.90;;;;;;6264919;22;20019;-83
2021/10/16 16:27:23;;;;;;;4.90;3.70;;;16.50;99.90;;;;;;6237632;22;20551;-83
2021/10/16 16:29:50;;;;;;;9.18;3.55;;;16.40;99.90;;;;;;6265622;22;20020;-82
2021/10/16 16:32:18;;;;;;;6.88;4.60;;;16.40;99.90;;;;;;6263843;22;20031;-83
2021/10/16 16:34:45;;;;;;;9.45;6.75;;;16.40;99.90;;;;;;6264984;22;20424;-83
2021/10/16 16:37:12;;;;;;;5.30;4.05;;;16.40;99.90;;;;;;6263131;22;20081;-82
2021/10/16 16:39:39;;;;;;;6.93;4.78;;;16.30;99.90;;;;;;6265141;22;20016;-82
2021/10/16 16:42:06;;;;;;;7.45;4.68;;;16.30;99.90;;;;;;6237319;22;20054;-81
2021/10/16 16:44:36;;;;;;;6.75;4.68;;;16.30;99.90;;;;;;6238209;22;20074;-82
2021/10/16 16:47:03;;;;;;;7.25;4.45;;;16.30;99.90;;;;;;6264205;22;20027;-81
2021/10/16 16:49:31;;;;;;;5.68;4.55;;;16.20;99.90;;;;;;6265278;22;20089;-82
2021/10/16 16:52:00;;;;;;;10.27;6.95;;;16.20;99.90;;;;;;6267503;22;20043;-82
2021/10/16 16:54:27;;;;;;;8.63;5.60;;;16.10;99.90;;;;;;6268178;22;20024;-82
2021/10/16 16:56:54;;;;;;;7.18;5.93;;;16.10;99.90;;;;;;6267771;22;20045;-83
2021/10/16 16:59:21;;;;;;;8.23;5.20;;;16.00;99.90;;;;;;6266351;22;20039;-82
2021/10/16 17:01:51;;;;;;;6.05;5.03;;;16.00;99.90;;;;;;6235769;22;20086;-82
2021/10/16 17:04:18;;;;;;;7.88;5.47;;;15.90;99.90;;;;;;6258027;22;20551;-83
2021/10/16 17:06:45;;;;;;;5.68;4.65;;;15.80;99.90;;;;;;6261625;22;20471;-83
2021/10/16 17:09:14;;;;;;;5.55;4.82;;;15.70;99.90;;;;;;6236839;22;20032;-82
2021/10/16 17:11:41;;;;;;;7.40;4.93;;;15.70;99.90;;;;;;6238493;22;20478;-82
2021/10/16 17:14:08;;;;;;;6.88;5.28;;;15.60;99.90;;;;;;6236847;22;20016;-82
2021/10/16 17:16:36;;;;;;;7.05;5.63;;;15.60;99.90;;;;;;6237634;22;20016;-82
2021/10/16 17:19:04;;;;;;;8.30;5.82;;;15.50;99.90;;;;;;6237995;22;20641;-82
2021/10/16 17:21:31;;;;;;;12.70;7.25;;;15.40;99.90;;;;;;6237604;22;20353;-81
2021/10/16 17:23:58;;;;;;;7.00;6.30;;;15.40;99.90;;;;;;6239727;22;20016;-81
2021/10/16 17:26:25;;;;;;;8.32;6.50;;;15.30;99.90;;;;;;6238111;22;20674;-81
2021/10/16 17:28:52;;;;;;;9.98;7.18;;;15.20;99.90;;;;;;6238975;22;20104;-81
2021/10/16 17:31:19;;;;;;;11.48;7.30;;;15.10;99.90;;;;;;6260274;22;20024;-82
2021/10/16 17:34:13;;;;;;;15.32;9.65;;;15.10;99.90;;;;;;6237692;22;20016;-82
2021/10/16 17:36:41;;;;;;;12.88;11.40;;;15.00;99.90;;;;;;6238685;22;20024;-81
2021/10/16 17:39:10;;;;;;;13.80;12.40;;;14.90;99.90;;;;;;6238128;22;20122;-81
2021/10/16 17:41:38;;;;;;;17.58;10.80;;;14.90;99.90;;;;;;6238025;22;20016;-80
2021/10/16 17:44:06;;;;;;;15.63;12.48;;;14.80;99.90;;;;;;6238521;22;20074;-81
2021/10/16 17:46:33;;;;;;;17.15;12.82;;;14.70;99.90;;;;;;6238524;22;20024;-81
2021/10/16 17:49:17;;;;;;;13.27;10.27;;;14.70;99.90;;;;;;6238689;22;20028;-80
2021/10/16 17:51:45;;;;;;;11.68;9.43;;;14.60;99.90;;;;;;6225102;22;20040;-81
2021/10/16 17:54:16;;;;;;;13.93;11.32;;;14.50;99.90;;;;;;6229309;22;20024;-82
2021/10/16 17:56:46;;;;;;;20.30;14.93;;;14.50;99.90;;;;;;6221676;22;20024;-81
2021/10/16 17:59:14;;;;;;;19.42;15.00;;;14.40;99.90;;;;;;6235387;22;20025;-81
2021/10/16 18:01:42;;;;;;;18.73;12.57;;;14.40;99.90;;;;;;6239425;22;20077;-80
2021/10/16 18:04:13;;;;;;;11.88;10.18;;;14.30;99.90;;;;;;6263776;22;20092;-81
2021/10/16 18:06:40;;;;;;;14.20;9.50;;;14.20;99.90;;;;;;6265461;22;20020;-83
2021/10/16 18:09:06;;;;;;;14.48;9.13;;;14.20;99.90;;;;;;6264032;22;20020;-81
2021/10/16 18:11:34;;;;;;;12.07;10.73;;;14.10;99.90;;;;;;6265671;22;20023;-81
2021/10/16 18:14:01;;;;;;;20.52;15.15;;;14.10;99.90;;;;;;6266625;22;20015;-81
2021/10/16 18:16:28;;;;;;;16.05;13.88;;;14.00;99.90;;;;;;6265902;22;20015;-80
2021/10/16 18:19:00;;;;;;;13.52;11.93;;;14.00;99.90;;;;;;6265863;22;20019;-80
2021/10/16 18:21:29;;;;;;;11.90;10.70;;;13.90;99.90;;;;;;6263946;22;20268;-78
2021/10/16 18:23:56;;;;;;;11.63;9.90;;;13.90;99.90;;;;;;6265337;22;20019;-79
2021/10/16 18:26:23;;;;;;;11.85;10.18;;;13.80;99.90;;;;;;6264680;22;20101;-78
2021/10/16 18:28:49;;;;;;;11.63;10.40;;;13.80;99.90;;;;;;6239438;22;20421;-78
2021/10/16 18:31:17;;;;;;;12.57;9.85;;;13.70;99.90;;;;;;6265360;22;20030;-79
2021/10/16 18:33:46;;;;;;;13.98;10.50;;;13.70;99.90;;;;;;6239093;22;20030;-81
2021/10/16 18:36:14;;;;;;;11.07;9.95;;;13.60;99.90;;;;;;6264921;22;20035;-79
2021/10/16 18:38:41;;;;;;;12.90;9.85;;;13.50;99.90;;;;;;6265294;22;20068;-80
2021/10/16 18:41:08;;;;;;;15.90;10.95;;;13.40;99.90;;;;;;6265234;22;20461;-77
2021/10/16 18:43:35;;;;;;;12.75;11.45;;;13.40;99.90;;;;;;6267089;22;20024;-81
2021/10/16 18:46:02;;;;;;;12.73;11.13;;;13.30;99.90;;;;;;6267684;22;20020;-81
2021/10/16 18:48:31;;;;;;;;;;;13.20;99.90;;;;;;6242152;22;20023;-81
2021/10/16 18:50:59;;;;;;;14.05;11.73;;;13.20;99.90;;;;;;6242395;22;20389;-81
2021/10/16 18:53:26;;;;;;;17.17;12.43;;;13.00;99.90;;;;;;6267637;22;20385;-81